Terminal Aerodrome Forecast
Issued by NWS Sioux Falls, SD

Home | Current Version | Previous Version | Text Only | Print | Product List | Glossary Off
Versions: 1 2 3 4 5 6 7 8 9 10 11 12 13 14 15 16

000
FTUS43 KFSD 182347
TAFHON
TAF
KHON 182347Z 1900/1924 16015G22KT P6SM BKN035
     FM190600 16015KT P6SM BKN020 WS019/19045KT
     FM191000 16013G20KT 5SM BR BKN008
     FM191700 22012G22KT P6SM BKN015
     FM191900 25011KT P6SM SCT025=

USA.gov is the U.S. government's official web portal to all federal, state and local government web resources and services.